FIN1DF EDDM-EFHK
Flight info
| Callsign | FIN1DF |
|---|---|
| Flight time | 2h 12m |
| Altitude | 36000 |
| Route | AKINI1S AKINI Y104 MAMOR L132 AGNAV DCT SUPIL DCT KILNU DCT UNRIG/N0440F350 DCT BODLA/N0443F370 DCT PENOR DCT ALAMI DCT OKEVU DCT EVADI Y370 DIVAM |
| Aircraft | A320/M-SDE3FGHIRWY/LB1 |
Departure
| Time | 2026-05-07 15:48 |
|---|---|
| Airport | Munich Airport (EDDM) |
Arrival
| Time | 2026-05-07 18:00 |
|---|---|
| Airport | Helsinki Vantaa Airport (EFHK) |
| Time | Latitude | Longitude | Altitude | Speed | Heading |
|---|---|---|---|---|---|
| 2026-05-07 15:11 | 48.35021 | 11.77973 | 1486 ft | 0 kts | 83° |
| 2026-05-07 15:33 | 48.35020 | 11.77955 | 1485 ft | 3 kts | 83° |
| 2026-05-07 15:34 | 48.35018 | 11.77925 | 1485 ft | 3 kts | 83° |
| 2026-05-07 15:34 | 48.35016 | 11.77899 | 1473 ft | 3 kts | 75° |
| 2026-05-07 15:34 | 48.35010 | 11.77881 | 1472 ft | 3 kts | 12° |
| 2026-05-07 15:34 | 48.34991 | 11.77880 | 1471 ft | 3 kts | 353° |
| 2026-05-07 15:35 | 48.34974 | 11.77883 | 1485 ft | 1 kts | 353° |
| 2026-05-07 15:35 | 48.34973 | 11.77884 | 1485 ft | 0 kts | 353° |
| 2026-05-07 15:38 | 48.34973 | 11.77883 | 1485 ft | 1 kts | 353° |
| 2026-05-07 15:38 | 48.34997 | 11.77879 | 1485 ft | 6 kts | 353° |
| 2026-05-07 15:38 | 48.35053 | 11.77870 | 1481 ft | 10 kts | 353° |
| 2026-05-07 15:38 | 48.35140 | 11.77855 | 1485 ft | 14 kts | 353° |
| 2026-05-07 15:39 | 48.35252 | 11.77835 | 1483 ft | 17 kts | 353° |
| 2026-05-07 15:39 | 48.35374 | 11.77814 | 1485 ft | 18 kts | 353° |
| 2026-05-07 15:39 | 48.35501 | 11.77792 | 1481 ft | 19 kts | 353° |
| 2026-05-07 15:39 | 48.35632 | 11.77769 | 1485 ft | 19 kts | 353° |
| 2026-05-07 15:40 | 48.35756 | 11.77739 | 1479 ft | 17 kts | 336° |
| 2026-05-07 15:40 | 48.35838 | 11.77697 | 1485 ft | 9 kts | 351° |
| 2026-05-07 15:40 | 48.35896 | 11.77688 | 1477 ft | 8 kts | 354° |
| 2026-05-07 15:40 | 48.35957 | 11.77678 | 1477 ft | 10 kts | 353° |
| 2026-05-07 15:41 | 48.36027 | 11.77665 | 1485 ft | 11 kts | 353° |
| 2026-05-07 15:41 | 48.36079 | 11.77712 | 1480 ft | 10 kts | 88° |
| 2026-05-07 15:41 | 48.36086 | 11.77809 | 1470 ft | 9 kts | 83° |
| 2026-05-07 15:41 | 48.36096 | 11.77946 | 1485 ft | 17 kts | 84° |
| 2026-05-07 15:42 | 48.36110 | 11.78124 | 1485 ft | 17 kts | 83° |
| 2026-05-07 15:42 | 48.36124 | 11.78305 | 1482 ft | 18 kts | 83° |
| 2026-05-07 15:42 | 48.36139 | 11.78490 | 1476 ft | 18 kts | 83° |
| 2026-05-07 15:42 | 48.36153 | 11.78678 | 1481 ft | 19 kts | 83° |
| 2026-05-07 15:43 | 48.36168 | 11.78872 | 1481 ft | 19 kts | 83° |
| 2026-05-07 15:43 | 48.36183 | 11.79077 | 1485 ft | 20 kts | 84° |
| 2026-05-07 15:43 | 48.36200 | 11.79293 | 1485 ft | 21 kts | 83° |
| 2026-05-07 15:43 | 48.36217 | 11.79517 | 1483 ft | 22 kts | 83° |
| 2026-05-07 15:44 | 48.36236 | 11.79750 | 1475 ft | 23 kts | 83° |
| 2026-05-07 15:44 | 48.36256 | 11.79991 | 1485 ft | 24 kts | 83° |
| 2026-05-07 15:44 | 48.36273 | 11.80242 | 1481 ft | 25 kts | 83° |
| 2026-05-07 15:44 | 48.36294 | 11.80500 | 1477 ft | 25 kts | 83° |
| 2026-05-07 15:45 | 48.36315 | 11.80766 | 1481 ft | 26 kts | 85° |
| 2026-05-07 15:45 | 48.36335 | 11.81039 | 1485 ft | 27 kts | 83° |
| 2026-05-07 15:45 | 48.36356 | 11.81312 | 1485 ft | 27 kts | 83° |
| 2026-05-07 15:45 | 48.36376 | 11.81572 | 1476 ft | 25 kts | 83° |
| 2026-05-07 15:46 | 48.36404 | 11.81979 | 1485 ft | 11 kts | 63° |
| 2026-05-07 15:46 | 48.36471 | 11.81999 | 1485 ft | 11 kts | 352° |
| 2026-05-07 15:46 | 48.36553 | 11.81984 | 1485 ft | 14 kts | 354° |
| 2026-05-07 15:47 | 48.36665 | 11.81943 | 1481 ft | 16 kts | 314° |
| 2026-05-07 15:47 | 48.36668 | 11.81858 | 1475 ft | 0 kts | 263° |
| 2026-05-07 15:47 | 48.36659 | 11.81748 | 1483 ft | 41 kts | 262° |
| 2026-05-07 15:47 | 48.36600 | 11.80956 | 1480 ft | 108 kts | 263° |
| 2026-05-07 15:48 | 48.36491 | 11.79548 | 1482 ft | 160 kts | 263° |
| 2026-05-07 15:48 | 48.36351 | 11.77812 | 1930 ft | 167 kts | 267° |
| 2026-05-07 15:48 | 48.36215 | 11.76075 | 2623 ft | 168 kts | 265° |
| 2026-05-07 15:48 | 48.36078 | 11.74251 | 2976 ft | 186 kts | 265° |
| 2026-05-07 15:49 | 48.35926 | 11.72198 | 3271 ft | 208 kts | 265° |
| 2026-05-07 15:49 | 48.35805 | 11.69957 | 3717 ft | 220 kts | 276° |
| 2026-05-07 15:49 | 48.36236 | 11.67755 | 4452 ft | 223 kts | 300° |
| 2026-05-07 15:49 | 48.37287 | 11.66049 | 5225 ft | 227 kts | 326° |
| 2026-05-07 15:50 | 48.38772 | 11.65191 | 5944 ft | 235 kts | 346° |
| 2026-05-07 15:50 | 48.40445 | 11.64674 | 6314 ft | 257 kts | 346° |
| 2026-05-07 15:50 | 48.42247 | 11.64131 | 6891 ft | 268 kts | 346° |
| 2026-05-07 15:50 | 48.44102 | 11.63639 | 7627 ft | 274 kts | 353° |
| 2026-05-07 15:51 | 48.46033 | 11.63788 | 8372 ft | 283 kts | 9° |
| 2026-05-07 15:51 | 48.47915 | 11.64789 | 9123 ft | 292 kts | 26° |
| 2026-05-07 15:51 | 48.49560 | 11.66634 | 9874 ft | 301 kts | 44° |
| 2026-05-07 15:51 | 48.50870 | 11.69138 | 10553 ft | 307 kts | 52° |
| 2026-05-07 15:52 | 48.52133 | 11.71752 | 11239 ft | 311 kts | 52° |
| 2026-05-07 15:52 | 48.53412 | 11.74404 | 11935 ft | 314 kts | 52° |
| 2026-05-07 15:52 | 48.54701 | 11.77087 | 12645 ft | 317 kts | 52° |
| 2026-05-07 15:52 | 48.55983 | 11.79759 | 13382 ft | 320 kts | 52° |
| 2026-05-07 15:53 | 48.57301 | 11.82498 | 14055 ft | 324 kts | 52° |
| 2026-05-07 15:53 | 48.58630 | 11.85253 | 14668 ft | 327 kts | 52° |
| 2026-05-07 15:53 | 48.59974 | 11.88043 | 15290 ft | 329 kts | 52° |
| 2026-05-07 15:53 | 48.61327 | 11.90854 | 15897 ft | 332 kts | 52° |
| 2026-05-07 15:54 | 48.62689 | 11.93687 | 16508 ft | 335 kts | 51° |
| 2026-05-07 15:54 | 48.64079 | 11.96583 | 16815 ft | 349 kts | 52° |
| 2026-05-07 15:54 | 48.65541 | 11.99629 | 16957 ft | 367 kts | 52° |
| 2026-05-07 15:54 | 48.67072 | 12.02819 | 17153 ft | 381 kts | 52° |
| 2026-05-07 15:55 | 48.68710 | 12.06012 | 17635 ft | 386 kts | 45° |
| 2026-05-07 15:55 | 48.70670 | 12.08771 | 18210 ft | 385 kts | 34° |
| 2026-05-07 15:55 | 48.72918 | 12.10961 | 18728 ft | 385 kts | 24° |
| 2026-05-07 15:55 | 48.75353 | 12.12673 | 19232 ft | 386 kts | 21° |
| 2026-05-07 15:56 | 48.77802 | 12.14385 | 19739 ft | 389 kts | 22° |
| 2026-05-07 15:56 | 48.80258 | 12.16147 | 20249 ft | 393 kts | 22° |
| 2026-05-07 15:56 | 48.82732 | 12.17945 | 20749 ft | 396 kts | 22° |
| 2026-05-07 15:56 | 48.85226 | 12.19767 | 21243 ft | 399 kts | 22° |
| 2026-05-07 15:57 | 48.87771 | 12.21628 | 21759 ft | 402 kts | 22° |
| 2026-05-07 15:57 | 48.90273 | 12.23441 | 22235 ft | 405 kts | 22° |
| 2026-05-07 15:57 | 48.92870 | 12.25284 | 22708 ft | 408 kts | 21° |
| 2026-05-07 15:57 | 48.95459 | 12.27096 | 23178 ft | 411 kts | 21° |
| 2026-05-07 15:58 | 48.98065 | 12.28913 | 23615 ft | 414 kts | 21° |
| 2026-05-07 15:58 | 49.00659 | 12.30727 | 23993 ft | 417 kts | 21° |
| 2026-05-07 15:58 | 49.03295 | 12.32581 | 24379 ft | 419 kts | 22° |
| 2026-05-07 15:58 | 49.05947 | 12.34458 | 24762 ft | 421 kts | 22° |
| 2026-05-07 15:59 | 49.08610 | 12.36345 | 25164 ft | 423 kts | 22° |
| 2026-05-07 15:59 | 49.11287 | 12.38242 | 25546 ft | 424 kts | 22° |
| 2026-05-07 15:59 | 49.13967 | 12.40143 | 25909 ft | 426 kts | 22° |
| 2026-05-07 15:59 | 49.16655 | 12.42050 | 26250 ft | 428 kts | 22° |
| 2026-05-07 16:00 | 49.19367 | 12.43976 | 26597 ft | 430 kts | 22° |
| 2026-05-07 16:00 | 49.22076 | 12.45907 | 26930 ft | 431 kts | 22° |
| 2026-05-07 16:00 | 49.24805 | 12.47853 | 27265 ft | 433 kts | 22° |
| 2026-05-07 16:00 | 49.27580 | 12.49839 | 27597 ft | 435 kts | 22° |
| 2026-05-07 16:01 | 49.30292 | 12.51780 | 27938 ft | 437 kts | 22° |
| 2026-05-07 16:01 | 49.33074 | 12.53640 | 28320 ft | 435 kts | 17° |
| 2026-05-07 16:01 | 49.35985 | 12.54897 | 28650 ft | 434 kts | 9° |
| 2026-05-07 16:01 | 49.38950 | 12.55820 | 28951 ft | 436 kts | 9° |
| 2026-05-07 16:02 | 49.41928 | 12.56754 | 29238 ft | 438 kts | 9° |
| 2026-05-07 16:02 | 49.44918 | 12.57692 | 29514 ft | 439 kts | 9° |
| 2026-05-07 16:02 | 49.47917 | 12.58636 | 29787 ft | 441 kts | 9° |
| 2026-05-07 16:02 | 49.50926 | 12.59589 | 30008 ft | 443 kts | 9° |
| 2026-05-07 16:03 | 49.53951 | 12.60547 | 30069 ft | 444 kts | 9° |
| 2026-05-07 16:03 | 49.56977 | 12.61506 | 30302 ft | 445 kts | 9° |
| 2026-05-07 16:03 | 49.60027 | 12.62384 | 30495 ft | 447 kts | 7° |
| 2026-05-07 16:03 | 49.63102 | 12.63161 | 30664 ft | 449 kts | 7° |
| 2026-05-07 16:04 | 49.66201 | 12.63879 | 30853 ft | 451 kts | 6° |
| 2026-05-07 16:04 | 49.69303 | 12.64571 | 31121 ft | 451 kts | 6° |
| 2026-05-07 16:04 | 49.72415 | 12.65278 | 31354 ft | 452 kts | 6° |
| 2026-05-07 16:04 | 49.75525 | 12.66001 | 31576 ft | 453 kts | 7° |
| 2026-05-07 16:05 | 49.78650 | 12.66752 | 31793 ft | 454 kts | 7° |
| 2026-05-07 16:05 | 49.81768 | 12.67521 | 32005 ft | 455 kts | 7° |
| 2026-05-07 16:05 | 49.84896 | 12.68302 | 32228 ft | 456 kts | 7° |
| 2026-05-07 16:05 | 49.88030 | 12.69087 | 32452 ft | 456 kts | 7° |
| 2026-05-07 16:06 | 49.91172 | 12.69869 | 32669 ft | 457 kts | 7° |
| 2026-05-07 16:06 | 49.94315 | 12.70647 | 32904 ft | 458 kts | 7° |
| 2026-05-07 16:06 | 49.97464 | 12.71423 | 33153 ft | 458 kts | 8° |
| 2026-05-07 16:06 | 50.00610 | 12.72196 | 33417 ft | 458 kts | 8° |
| 2026-05-07 16:07 | 50.03764 | 12.72974 | 33657 ft | 459 kts | 8° |
| 2026-05-07 16:07 | 50.06919 | 12.73754 | 33890 ft | 459 kts | 8° |
| 2026-05-07 16:07 | 50.10075 | 12.74539 | 34102 ft | 460 kts | 8° |
| 2026-05-07 16:07 | 50.13229 | 12.75328 | 34294 ft | 460 kts | 8° |
| 2026-05-07 16:08 | 50.16396 | 12.76120 | 34487 ft | 460 kts | 8° |
| 2026-05-07 16:08 | 50.19562 | 12.76909 | 34678 ft | 461 kts | 8° |
| 2026-05-07 16:08 | 50.22732 | 12.77698 | 34854 ft | 462 kts | 8° |
| 2026-05-07 16:08 | 50.25900 | 12.78486 | 35030 ft | 462 kts | 8° |
| 2026-05-07 16:09 | 50.29078 | 12.79278 | 35208 ft | 462 kts | 8° |
| 2026-05-07 16:09 | 50.32213 | 12.80063 | 35384 ft | 463 kts | 8° |
| 2026-05-07 16:09 | 50.35412 | 12.81041 | 35559 ft | 464 kts | 14° |
| 2026-05-07 16:09 | 50.38418 | 12.82702 | 35714 ft | 465 kts | 24° |
| 2026-05-07 16:10 | 50.41274 | 12.85081 | 35870 ft | 466 kts | 31° |
| 2026-05-07 16:10 | 50.44046 | 12.87715 | 36017 ft | 466 kts | 31° |
| 2026-05-07 16:10 | 50.46854 | 12.90263 | 36169 ft | 466 kts | 25° |
| 2026-05-07 16:10 | 50.49848 | 12.92201 | 36306 ft | 465 kts | 16° |
| 2026-05-07 16:11 | 50.52942 | 12.93664 | 36445 ft | 465 kts | 15° |
| 2026-05-07 16:11 | 50.56042 | 12.95126 | 36587 ft | 466 kts | 15° |
| 2026-05-07 16:11 | 50.59147 | 12.96603 | 36727 ft | 466 kts | 15° |
| 2026-05-07 16:11 | 50.62248 | 12.98087 | 36885 ft | 466 kts | 16° |
| 2026-05-07 16:12 | 50.65345 | 12.99574 | 37008 ft | 466 kts | 16° |
| 2026-05-07 16:12 | 50.70546 | 13.02071 | 37033 ft | 466 kts | 15° |
| 2026-05-07 16:13 | 50.76741 | 13.05043 | 37035 ft | 466 kts | 15° |
| 2026-05-07 16:13 | 50.82948 | 13.08029 | 37043 ft | 466 kts | 16° |
| 2026-05-07 16:14 | 50.89146 | 13.11024 | 37046 ft | 466 kts | 16° |
| 2026-05-07 16:14 | 50.95338 | 13.14024 | 37047 ft | 466 kts | 16° |
| 2026-05-07 16:15 | 51.01534 | 13.17036 | 37052 ft | 466 kts | 16° |
| 2026-05-07 16:15 | 51.07736 | 13.20053 | 37056 ft | 466 kts | 16° |
| 2026-05-07 16:16 | 51.13939 | 13.23077 | 37054 ft | 466 kts | 16° |
| 2026-05-07 16:16 | 51.20138 | 13.26121 | 37043 ft | 466 kts | 16° |
| 2026-05-07 16:17 | 51.26341 | 13.29180 | 37048 ft | 466 kts | 16° |
| 2026-05-07 16:17 | 51.32545 | 13.32234 | 37051 ft | 466 kts | 16° |
| 2026-05-07 16:18 | 51.38742 | 13.35285 | 37048 ft | 466 kts | 16° |
| 2026-05-07 16:18 | 51.44945 | 13.38361 | 37060 ft | 466 kts | 16° |
| 2026-05-07 16:19 | 51.51148 | 13.41446 | 37059 ft | 466 kts | 16° |
| 2026-05-07 16:19 | 51.57342 | 13.44529 | 37058 ft | 466 kts | 16° |
| 2026-05-07 16:20 | 51.63503 | 13.47605 | 37056 ft | 466 kts | 16° |
| 2026-05-07 16:20 | 51.69695 | 13.50707 | 37054 ft | 466 kts | 16° |
| 2026-05-07 16:21 | 51.75894 | 13.53816 | 37059 ft | 467 kts | 16° |
| 2026-05-07 16:21 | 51.82096 | 13.56939 | 37062 ft | 467 kts | 16° |
| 2026-05-07 16:22 | 51.88287 | 13.60095 | 37064 ft | 467 kts | 17° |
| 2026-05-07 16:22 | 51.94436 | 13.63494 | 37064 ft | 467 kts | 19° |
| 2026-05-07 16:23 | 52.00562 | 13.67036 | 37070 ft | 467 kts | 19° |
| 2026-05-07 16:23 | 52.06680 | 13.70546 | 37075 ft | 467 kts | 18° |
| 2026-05-07 16:24 | 52.12825 | 13.74020 | 37079 ft | 467 kts | 18° |
| 2026-05-07 16:24 | 52.18965 | 13.77498 | 37087 ft | 467 kts | 18° |
| 2026-05-07 16:25 | 52.25108 | 13.81003 | 37091 ft | 467 kts | 18° |
| 2026-05-07 16:25 | 52.31246 | 13.84515 | 37089 ft | 467 kts | 19° |
| 2026-05-07 16:26 | 52.37383 | 13.88033 | 37088 ft | 467 kts | 18° |
| 2026-05-07 16:26 | 52.43520 | 13.91559 | 37089 ft | 467 kts | 19° |
| 2026-05-07 16:27 | 52.49655 | 13.95098 | 37089 ft | 468 kts | 19° |
| 2026-05-07 16:27 | 52.55793 | 13.98647 | 37086 ft | 467 kts | 19° |
| 2026-05-07 16:28 | 52.61917 | 14.02214 | 37088 ft | 467 kts | 19° |
| 2026-05-07 16:28 | 52.68037 | 14.05779 | 37084 ft | 467 kts | 19° |
| 2026-05-07 16:29 | 52.74160 | 14.09335 | 37085 ft | 467 kts | 19° |
| 2026-05-07 16:29 | 52.80281 | 14.12910 | 37084 ft | 467 kts | 19° |
| 2026-05-07 16:30 | 52.86400 | 14.16513 | 37078 ft | 467 kts | 19° |
| 2026-05-07 16:30 | 52.92479 | 14.20105 | 37093 ft | 467 kts | 19° |
| 2026-05-07 16:31 | 52.98593 | 14.23716 | 37095 ft | 466 kts | 19° |
| 2026-05-07 16:31 | 53.04743 | 14.27350 | 37091 ft | 466 kts | 19° |
| 2026-05-07 16:32 | 53.10815 | 14.30941 | 37093 ft | 466 kts | 19° |
| 2026-05-07 16:32 | 53.16912 | 14.34586 | 37094 ft | 466 kts | 19° |
| 2026-05-07 16:33 | 53.23017 | 14.38260 | 37100 ft | 466 kts | 19° |
| 2026-05-07 16:33 | 53.28962 | 14.42515 | 37094 ft | 466 kts | 31° |
| 2026-05-07 16:34 | 53.34408 | 14.48412 | 37099 ft | 466 kts | 33° |
| 2026-05-07 16:34 | 53.39842 | 14.54346 | 37107 ft | 466 kts | 33° |
| 2026-05-07 16:35 | 53.45280 | 14.60287 | 37079 ft | 467 kts | 33° |
| 2026-05-07 16:35 | 53.50724 | 14.66263 | 37078 ft | 468 kts | 33° |
| 2026-05-07 16:36 | 53.56174 | 14.72280 | 37080 ft | 469 kts | 33° |
| 2026-05-07 16:36 | 53.61631 | 14.78317 | 37087 ft | 469 kts | 33° |
| 2026-05-07 16:37 | 53.67088 | 14.84354 | 37089 ft | 470 kts | 33° |
| 2026-05-07 16:37 | 53.72542 | 14.90420 | 37094 ft | 470 kts | 33° |
| 2026-05-07 16:38 | 53.77997 | 14.96505 | 37103 ft | 470 kts | 33° |
| 2026-05-07 16:38 | 53.83448 | 15.02600 | 37108 ft | 470 kts | 33° |
| 2026-05-07 16:39 | 53.88894 | 15.08709 | 37108 ft | 470 kts | 33° |
| 2026-05-07 16:39 | 53.94334 | 15.14832 | 37117 ft | 469 kts | 33° |
| 2026-05-07 16:40 | 53.99777 | 15.20981 | 37116 ft | 469 kts | 33° |
| 2026-05-07 16:40 | 54.05209 | 15.27140 | 37114 ft | 469 kts | 33° |
| 2026-05-07 16:41 | 54.10636 | 15.33305 | 37118 ft | 469 kts | 33° |
| 2026-05-07 16:41 | 54.16028 | 15.39459 | 37119 ft | 469 kts | 33° |
| 2026-05-07 16:42 | 54.21455 | 15.45668 | 37119 ft | 469 kts | 33° |
| 2026-05-07 16:42 | 54.26881 | 15.51886 | 37123 ft | 470 kts | 33° |
| 2026-05-07 16:43 | 54.32301 | 15.58125 | 37125 ft | 470 kts | 33° |
| 2026-05-07 16:43 | 54.37717 | 15.64393 | 37126 ft | 470 kts | 33° |
| 2026-05-07 16:44 | 54.43134 | 15.70682 | 37128 ft | 470 kts | 33° |
| 2026-05-07 16:44 | 54.48548 | 15.76968 | 37123 ft | 469 kts | 34° |
| 2026-05-07 16:45 | 54.53956 | 15.83279 | 37132 ft | 470 kts | 33° |
| 2026-05-07 16:45 | 54.59353 | 15.89594 | 37128 ft | 470 kts | 33° |
| 2026-05-07 16:46 | 54.64753 | 15.95941 | 37129 ft | 469 kts | 34° |
| 2026-05-07 16:46 | 54.70151 | 16.02290 | 37129 ft | 469 kts | 34° |
| 2026-05-07 16:47 | 54.75540 | 16.08659 | 37128 ft | 469 kts | 34° |
| 2026-05-07 16:47 | 54.80928 | 16.15054 | 37127 ft | 469 kts | 34° |
| 2026-05-07 16:48 | 54.86318 | 16.21465 | 37132 ft | 470 kts | 34° |
| 2026-05-07 16:48 | 54.91701 | 16.27892 | 37132 ft | 470 kts | 34° |
| 2026-05-07 16:49 | 54.97087 | 16.34338 | 37128 ft | 470 kts | 34° |
| 2026-05-07 16:49 | 55.02464 | 16.40787 | 37129 ft | 470 kts | 34° |
| 2026-05-07 16:50 | 55.07839 | 16.47265 | 37131 ft | 469 kts | 34° |
| 2026-05-07 16:50 | 55.13198 | 16.53766 | 37131 ft | 469 kts | 34° |
| 2026-05-07 16:51 | 55.18558 | 16.60277 | 37135 ft | 469 kts | 34° |
| 2026-05-07 16:51 | 55.23913 | 16.66799 | 37134 ft | 469 kts | 34° |
| 2026-05-07 16:52 | 55.29263 | 16.73323 | 37135 ft | 468 kts | 34° |
| 2026-05-07 16:52 | 55.34609 | 16.79863 | 37136 ft | 468 kts | 34° |
| 2026-05-07 16:53 | 55.39944 | 16.86425 | 37100 ft | 469 kts | 34° |
| 2026-05-07 16:53 | 55.45288 | 16.93028 | 37102 ft | 470 kts | 34° |
| 2026-05-07 16:54 | 55.50633 | 16.99663 | 37101 ft | 471 kts | 34° |
| 2026-05-07 16:54 | 55.55991 | 17.06322 | 37108 ft | 471 kts | 34° |
| 2026-05-07 16:55 | 55.61351 | 17.12998 | 37112 ft | 471 kts | 34° |
| 2026-05-07 16:55 | 55.66903 | 17.19137 | 37127 ft | 470 kts | 27° |
| 2026-05-07 16:56 | 55.72609 | 17.24791 | 37126 ft | 470 kts | 27° |
| 2026-05-07 16:56 | 55.81164 | 17.33315 | 37130 ft | 470 kts | 28° |
| 2026-05-07 16:57 | 55.86865 | 17.39021 | 37128 ft | 470 kts | 28° |
| 2026-05-07 16:57 | 55.92568 | 17.44736 | 37132 ft | 470 kts | 27° |
| 2026-05-07 16:58 | 55.97296 | 17.49492 | 37130 ft | 470 kts | 28° |
| 2026-05-07 16:58 | 56.02988 | 17.55252 | 37130 ft | 470 kts | 28° |
| 2026-05-07 16:59 | 56.08676 | 17.61012 | 37132 ft | 470 kts | 28° |
| 2026-05-07 16:59 | 56.14366 | 17.66791 | 37141 ft | 470 kts | 27° |
| 2026-05-07 17:00 | 56.20043 | 17.72588 | 37139 ft | 469 kts | 28° |
| 2026-05-07 17:00 | 56.25715 | 17.78396 | 37137 ft | 469 kts | 28° |
| 2026-05-07 17:01 | 56.31381 | 17.84211 | 37135 ft | 469 kts | 28° |
| 2026-05-07 17:01 | 56.37050 | 17.90052 | 37149 ft | 469 kts | 27° |
| 2026-05-07 17:02 | 56.42704 | 17.95896 | 37144 ft | 468 kts | 28° |
| 2026-05-07 17:02 | 56.48355 | 18.01762 | 37139 ft | 468 kts | 28° |
| 2026-05-07 17:03 | 56.53999 | 18.07653 | 37136 ft | 468 kts | 28° |
| 2026-05-07 17:03 | 56.59635 | 18.13545 | 37133 ft | 468 kts | 28° |
| 2026-05-07 17:04 | 56.65268 | 18.19457 | 37149 ft | 467 kts | 28° |
| 2026-05-07 17:04 | 56.70900 | 18.25385 | 37144 ft | 467 kts | 28° |
| 2026-05-07 17:05 | 56.76519 | 18.31323 | 37148 ft | 467 kts | 28° |
| 2026-05-07 17:05 | 56.82137 | 18.37286 | 37141 ft | 467 kts | 28° |
| 2026-05-07 17:06 | 56.87750 | 18.43257 | 37143 ft | 467 kts | 27° |
| 2026-05-07 17:06 | 56.93327 | 18.49207 | 37159 ft | 467 kts | 28° |
| 2026-05-07 17:07 | 56.98971 | 18.55247 | 37127 ft | 467 kts | 28° |
| 2026-05-07 17:07 | 57.04586 | 18.61284 | 37123 ft | 468 kts | 28° |
| 2026-05-07 17:08 | 57.10172 | 18.67301 | 37147 ft | 469 kts | 27° |
| 2026-05-07 17:08 | 57.15791 | 18.73387 | 37144 ft | 469 kts | 27° |
| 2026-05-07 17:09 | 57.21417 | 18.79500 | 37148 ft | 469 kts | 27° |
| 2026-05-07 17:09 | 57.27042 | 18.85621 | 37147 ft | 469 kts | 27° |
| 2026-05-07 17:10 | 57.32659 | 18.91759 | 37145 ft | 469 kts | 28° |
| 2026-05-07 17:10 | 57.38272 | 18.97926 | 37147 ft | 469 kts | 28° |
| 2026-05-07 17:11 | 57.43879 | 19.04119 | 37148 ft | 469 kts | 28° |
| 2026-05-07 17:11 | 57.49488 | 19.10331 | 37146 ft | 469 kts | 28° |
| 2026-05-07 17:12 | 57.55092 | 19.16550 | 37146 ft | 469 kts | 28° |
| 2026-05-07 17:12 | 57.60686 | 19.22776 | 37156 ft | 469 kts | 28° |
| 2026-05-07 17:13 | 57.66281 | 19.29039 | 37151 ft | 469 kts | 28° |
| 2026-05-07 17:13 | 57.71874 | 19.35316 | 37147 ft | 469 kts | 28° |
| 2026-05-07 17:14 | 57.77438 | 19.41575 | 37151 ft | 469 kts | 28° |
| 2026-05-07 17:14 | 57.83040 | 19.47916 | 37177 ft | 469 kts | 28° |
| 2026-05-07 17:15 | 57.88623 | 19.54247 | 37165 ft | 469 kts | 28° |
| 2026-05-07 17:15 | 57.94196 | 19.60584 | 37158 ft | 469 kts | 28° |
| 2026-05-07 17:16 | 57.99768 | 19.66958 | 37152 ft | 469 kts | 28° |
| 2026-05-07 17:16 | 58.05336 | 19.73352 | 37155 ft | 468 kts | 28° |
| 2026-05-07 17:17 | 58.10900 | 19.79769 | 37158 ft | 469 kts | 28° |
| 2026-05-07 17:17 | 58.16471 | 19.86199 | 37152 ft | 469 kts | 28° |
| 2026-05-07 17:18 | 58.22045 | 19.92650 | 37151 ft | 469 kts | 28° |
| 2026-05-07 17:18 | 58.27605 | 19.99137 | 37148 ft | 469 kts | 28° |
| 2026-05-07 17:19 | 58.33160 | 20.05634 | 37171 ft | 469 kts | 28° |
| 2026-05-07 17:19 | 58.38726 | 20.12160 | 37153 ft | 470 kts | 28° |
| 2026-05-07 17:20 | 58.44297 | 20.18716 | 37148 ft | 471 kts | 28° |
| 2026-05-07 17:20 | 58.49866 | 20.25299 | 37147 ft | 471 kts | 28° |
| 2026-05-07 17:21 | 58.55432 | 20.31904 | 37150 ft | 471 kts | 28° |
| 2026-05-07 17:21 | 58.61001 | 20.38528 | 37161 ft | 471 kts | 28° |
| 2026-05-07 17:22 | 58.66572 | 20.45187 | 37144 ft | 472 kts | 28° |
| 2026-05-07 17:22 | 58.72142 | 20.51873 | 37139 ft | 472 kts | 28° |
| 2026-05-07 17:23 | 58.77714 | 20.58603 | 37138 ft | 473 kts | 28° |
| 2026-05-07 17:23 | 58.83281 | 20.65340 | 37146 ft | 473 kts | 28° |
| 2026-05-07 17:24 | 58.88874 | 20.72107 | 37124 ft | 474 kts | 28° |
| 2026-05-07 17:24 | 58.94427 | 20.78870 | 37141 ft | 475 kts | 28° |
| 2026-05-07 17:25 | 59.00019 | 20.85724 | 37143 ft | 476 kts | 28° |
| 2026-05-07 17:25 | 59.05125 | 20.93954 | 37142 ft | 483 kts | 46° |
| 2026-05-07 17:26 | 59.08945 | 21.04768 | 37160 ft | 487 kts | 56° |
| 2026-05-07 17:26 | 59.12477 | 21.16024 | 37156 ft | 488 kts | 56° |
| 2026-05-07 17:27 | 59.16032 | 21.27382 | 37143 ft | 488 kts | 57° |
| 2026-05-07 17:27 | 59.19526 | 21.38618 | 37147 ft | 488 kts | 57° |
| 2026-05-07 17:28 | 59.23033 | 21.49965 | 37145 ft | 488 kts | 57° |
| 2026-05-07 17:28 | 59.26533 | 21.61335 | 37172 ft | 489 kts | 57° |
| 2026-05-07 17:29 | 59.30031 | 21.72756 | 37161 ft | 490 kts | 57° |
| 2026-05-07 17:29 | 59.33519 | 21.84199 | 37135 ft | 490 kts | 57° |
| 2026-05-07 17:30 | 59.37022 | 21.95758 | 37123 ft | 490 kts | 57° |
| 2026-05-07 17:30 | 59.40500 | 22.07261 | 37127 ft | 491 kts | 57° |
| 2026-05-07 17:31 | 59.43974 | 22.18806 | 37089 ft | 492 kts | 57° |
| 2026-05-07 17:31 | 59.45710 | 22.24608 | 36855 ft | 492 kts | 57° |
| 2026-05-07 17:31 | 59.47443 | 22.30408 | 36526 ft | 492 kts | 57° |
| 2026-05-07 17:32 | 59.49182 | 22.36244 | 35607 ft | 497 kts | 57° |
| 2026-05-07 17:32 | 59.50935 | 22.42138 | 34745 ft | 501 kts | 57° |
| 2026-05-07 17:32 | 59.52681 | 22.48034 | 34300 ft | 494 kts | 57° |
| 2026-05-07 17:32 | 59.53821 | 22.51889 | 33895 ft | 492 kts | 57° |
| 2026-05-07 17:33 | 59.56105 | 22.59640 | 33170 ft | 485 kts | 57° |
| 2026-05-07 17:33 | 59.57786 | 22.65375 | 32624 ft | 480 kts | 57° |
| 2026-05-07 17:33 | 59.59445 | 22.71051 | 32091 ft | 476 kts | 57° |
| 2026-05-07 17:33 | 59.61090 | 22.76682 | 31560 ft | 471 kts | 57° |
| 2026-05-07 17:34 | 59.62716 | 22.82247 | 31055 ft | 468 kts | 57° |
| 2026-05-07 17:34 | 59.64332 | 22.87792 | 30549 ft | 465 kts | 57° |
| 2026-05-07 17:34 | 59.65937 | 22.93325 | 30016 ft | 462 kts | 57° |
| 2026-05-07 17:34 | 59.67526 | 22.98815 | 29495 ft | 458 kts | 57° |
| 2026-05-07 17:35 | 59.69099 | 23.04259 | 29017 ft | 453 kts | 57° |
| 2026-05-07 17:35 | 59.70656 | 23.09654 | 28527 ft | 449 kts | 57° |
| 2026-05-07 17:35 | 59.72193 | 23.14995 | 28057 ft | 444 kts | 57° |
| 2026-05-07 17:35 | 59.73716 | 23.20295 | 27597 ft | 441 kts | 57° |
| 2026-05-07 17:36 | 59.75224 | 23.25558 | 27155 ft | 437 kts | 57° |
| 2026-05-07 17:36 | 59.76713 | 23.30769 | 26715 ft | 433 kts | 57° |
| 2026-05-07 17:36 | 59.78192 | 23.35960 | 26278 ft | 430 kts | 57° |
| 2026-05-07 17:36 | 59.79659 | 23.41103 | 25841 ft | 427 kts | 57° |
| 2026-05-07 17:37 | 59.81118 | 23.46229 | 25405 ft | 424 kts | 57° |
| 2026-05-07 17:37 | 59.82563 | 23.51327 | 24969 ft | 423 kts | 57° |
| 2026-05-07 17:37 | 59.84002 | 23.56417 | 24502 ft | 421 kts | 57° |
| 2026-05-07 17:37 | 59.85430 | 23.61475 | 24044 ft | 419 kts | 57° |
| 2026-05-07 17:38 | 59.86856 | 23.66534 | 23571 ft | 418 kts | 57° |
| 2026-05-07 17:38 | 59.88268 | 23.71566 | 23067 ft | 416 kts | 57° |
| 2026-05-07 17:38 | 59.89666 | 23.76575 | 22611 ft | 412 kts | 58° |
| 2026-05-07 17:38 | 59.91022 | 23.81455 | 22356 ft | 403 kts | 59° |
| 2026-05-07 17:39 | 59.92183 | 23.86511 | 22027 ft | 399 kts | 64° |
| 2026-05-07 17:39 | 59.93273 | 23.91595 | 21545 ft | 398 kts | 64° |
| 2026-05-07 17:39 | 59.94344 | 23.96621 | 21213 ft | 393 kts | 64° |
| 2026-05-07 17:39 | 59.95401 | 24.01609 | 20615 ft | 388 kts | 64° |
| 2026-05-07 17:40 | 59.96441 | 24.06550 | 19950 ft | 383 kts | 65° |
| 2026-05-07 17:40 | 59.97460 | 24.11413 | 19392 ft | 377 kts | 64° |
| 2026-05-07 17:40 | 59.98126 | 24.14591 | 19076 ft | 374 kts | 64° |
| 2026-05-07 17:40 | 59.99143 | 24.19435 | 18584 ft | 375 kts | 64° |
| 2026-05-07 17:41 | 60.00147 | 24.24211 | 18209 ft | 373 kts | 64° |
| 2026-05-07 17:41 | 60.01158 | 24.29012 | 17766 ft | 372 kts | 64° |
| 2026-05-07 17:41 | 60.02144 | 24.33719 | 17212 ft | 364 kts | 64° |
| 2026-05-07 17:41 | 60.03110 | 24.38347 | 16593 ft | 358 kts | 64° |
| 2026-05-07 17:42 | 60.04056 | 24.42892 | 15985 ft | 353 kts | 64° |
| 2026-05-07 17:42 | 60.04998 | 24.47415 | 15608 ft | 350 kts | 64° |
| 2026-05-07 17:42 | 60.05926 | 24.51878 | 15257 ft | 348 kts | 64° |
| 2026-05-07 17:42 | 60.06851 | 24.56336 | 14913 ft | 343 kts | 65° |
| 2026-05-07 17:43 | 60.07750 | 24.60705 | 14330 ft | 338 kts | 65° |
| 2026-05-07 17:43 | 60.08626 | 24.64986 | 13862 ft | 332 kts | 65° |
| 2026-05-07 17:43 | 60.09496 | 24.69223 | 13390 ft | 327 kts | 64° |
| 2026-05-07 17:43 | 60.10587 | 24.73165 | 12969 ft | 320 kts | 51° |
| 2026-05-07 17:44 | 60.12015 | 24.76525 | 12551 ft | 318 kts | 44° |
| 2026-05-07 17:44 | 60.13234 | 24.80280 | 12092 ft | 325 kts | 66° |
| 2026-05-07 17:44 | 60.13941 | 24.84571 | 11391 ft | 325 kts | 71° |
| 2026-05-07 17:44 | 60.14628 | 24.88878 | 11055 ft | 321 kts | 70° |
| 2026-05-07 17:45 | 60.15297 | 24.93065 | 10717 ft | 318 kts | 70° |
| 2026-05-07 17:45 | 60.15978 | 24.97320 | 10449 ft | 312 kts | 70° |
| 2026-05-07 17:45 | 60.16631 | 25.01393 | 10311 ft | 302 kts | 71° |
| 2026-05-07 17:45 | 60.17272 | 25.05366 | 10048 ft | 297 kts | 71° |
| 2026-05-07 17:46 | 60.17896 | 25.09226 | 9712 ft | 294 kts | 70° |
| 2026-05-07 17:46 | 60.18532 | 25.13173 | 9350 ft | 291 kts | 70° |
| 2026-05-07 17:46 | 60.19139 | 25.16973 | 8984 ft | 288 kts | 70° |
| 2026-05-07 17:46 | 60.19745 | 25.20792 | 8614 ft | 285 kts | 70° |
| 2026-05-07 17:47 | 60.20339 | 25.24574 | 8249 ft | 283 kts | 70° |
| 2026-05-07 17:47 | 60.21217 | 25.28031 | 7886 ft | 275 kts | 46° |
| 2026-05-07 17:47 | 60.22723 | 25.30235 | 7514 ft | 266 kts | 19° |
| 2026-05-07 17:47 | 60.24513 | 25.30736 | 7134 ft | 260 kts | 351° |
| 2026-05-07 17:48 | 60.26230 | 25.29674 | 6723 ft | 258 kts | 337° |
| 2026-05-07 17:48 | 60.27871 | 25.28229 | 6327 ft | 257 kts | 336° |
| 2026-05-07 17:48 | 60.29492 | 25.26744 | 5899 ft | 255 kts | 335° |
| 2026-05-07 17:48 | 60.31107 | 25.25262 | 5479 ft | 254 kts | 335° |
| 2026-05-07 17:49 | 60.32715 | 25.23795 | 5075 ft | 253 kts | 335° |
| 2026-05-07 17:49 | 60.34316 | 25.22347 | 5001 ft | 253 kts | 336° |
| 2026-05-07 17:49 | 60.35930 | 25.20892 | 5006 ft | 254 kts | 336° |
| 2026-05-07 17:49 | 60.37546 | 25.19436 | 5009 ft | 255 kts | 336° |
| 2026-05-07 17:50 | 60.39167 | 25.17972 | 5012 ft | 255 kts | 336° |
| 2026-05-07 17:50 | 60.40819 | 25.16697 | 5007 ft | 255 kts | 349° |
| 2026-05-07 17:50 | 60.42534 | 25.16919 | 5006 ft | 242 kts | 15° |
| 2026-05-07 17:50 | 60.44060 | 25.18046 | 5009 ft | 225 kts | 20° |
| 2026-05-07 17:51 | 60.45481 | 25.19239 | 5011 ft | 220 kts | 20° |
| 2026-05-07 17:51 | 60.46889 | 25.20446 | 5011 ft | 220 kts | 21° |
| 2026-05-07 17:51 | 60.48300 | 25.21657 | 5016 ft | 220 kts | 20° |
| 2026-05-07 17:51 | 60.49707 | 25.22865 | 5014 ft | 219 kts | 19° |
| 2026-05-07 17:52 | 60.51184 | 25.23262 | 5023 ft | 215 kts | 347° |
| 2026-05-07 17:52 | 60.52486 | 25.21896 | 5017 ft | 213 kts | 313° |
| 2026-05-07 17:52 | 60.53154 | 25.19246 | 5017 ft | 215 kts | 279° |
| 2026-05-07 17:52 | 60.53090 | 25.16184 | 5014 ft | 220 kts | 263° |
| 2026-05-07 17:53 | 60.52820 | 25.13126 | 5018 ft | 221 kts | 261° |
| 2026-05-07 17:53 | 60.52519 | 25.10067 | 5021 ft | 222 kts | 261° |
| 2026-05-07 17:53 | 60.52207 | 25.06985 | 5017 ft | 222 kts | 261° |
| 2026-05-07 17:53 | 60.51894 | 25.03924 | 4831 ft | 221 kts | 261° |
| 2026-05-07 17:54 | 60.51581 | 25.00870 | 4473 ft | 220 kts | 261° |
| 2026-05-07 17:54 | 60.51268 | 24.97839 | 4138 ft | 219 kts | 261° |
| 2026-05-07 17:54 | 60.50958 | 24.94847 | 3938 ft | 212 kts | 261° |
| 2026-05-07 17:54 | 60.50657 | 24.91973 | 3803 ft | 204 kts | 261° |
| 2026-05-07 17:55 | 60.50365 | 24.89203 | 3660 ft | 197 kts | 261° |
| 2026-05-07 17:55 | 60.50081 | 24.86508 | 3435 ft | 194 kts | 261° |
| 2026-05-07 17:55 | 60.49800 | 24.83843 | 3211 ft | 192 kts | 260° |
| 2026-05-07 17:55 | 60.49446 | 24.81265 | 2986 ft | 190 kts | 241° |
| 2026-05-07 17:56 | 60.48468 | 24.79530 | 2722 ft | 193 kts | 198° |
| 2026-05-07 17:56 | 60.47148 | 24.79796 | 2447 ft | 199 kts | 149° |
| 2026-05-07 17:56 | 60.46256 | 24.81908 | 2157 ft | 201 kts | 120° |
| 2026-05-07 17:56 | 60.45383 | 24.84049 | 1999 ft | 196 kts | 155° |
| 2026-05-07 17:57 | 60.44114 | 24.85024 | 2018 ft | 195 kts | 158° |
| 2026-05-07 17:57 | 60.43316 | 24.85804 | 2039 ft | 191 kts | 155° |
| 2026-05-07 17:57 | 60.41753 | 24.87450 | 2007 ft | 189 kts | 155° |
| 2026-05-07 17:57 | 60.40590 | 24.88658 | 1847 ft | 187 kts | 155° |
| 2026-05-07 17:58 | 60.39467 | 24.89821 | 1622 ft | 175 kts | 156° |
| 2026-05-07 17:58 | 60.38424 | 24.90898 | 1428 ft | 161 kts | 156° |
| 2026-05-07 17:58 | 60.37457 | 24.91895 | 1192 ft | 150 kts | 156° |
| 2026-05-07 17:58 | 60.36562 | 24.92815 | 994 ft | 141 kts | 156° |
| 2026-05-07 17:59 | 60.35706 | 24.93696 | 793 ft | 136 kts | 156° |
| 2026-05-07 17:59 | 60.34869 | 24.94555 | 618 ft | 136 kts | 155° |
| 2026-05-07 17:59 | 60.34032 | 24.95412 | 456 ft | 134 kts | 154° |
| 2026-05-07 17:59 | 60.33212 | 24.96260 | 268 ft | 134 kts | 154° |
| 2026-05-07 18:00 | 60.32432 | 24.97059 | 168 ft | 120 kts | 153° |
| 2026-05-07 18:00 | 60.31811 | 24.97696 | 152 ft | 75 kts | 153° |
| 2026-05-07 18:00 | 60.31502 | 24.98009 | 153 ft | 24 kts | 161° |
| 2026-05-07 18:00 | 60.31416 | 24.97870 | 155 ft | 12 kts | 243° |
| 2026-05-07 18:01 | 60.31411 | 24.97848 | 155 ft | 0 kts | 245° |
| 2026-05-07 18:03 | 60.31405 | 24.97794 | 156 ft | 4 kts | 274° |
| 2026-05-07 18:03 | 60.31425 | 24.97754 | 156 ft | 6 kts | 330° |
| 2026-05-07 18:03 | 60.31475 | 24.97707 | 156 ft | 10 kts | 334° |
| 2026-05-07 18:04 | 60.31553 | 24.97624 | 156 ft | 15 kts | 333° |
| 2026-05-07 18:04 | 60.31635 | 24.97522 | 159 ft | 10 kts | 296° |
| 2026-05-07 18:04 | 60.31628 | 24.97442 | 163 ft | 3 kts | 248° |
| 2026-05-07 18:04 | 60.31643 | 24.97382 | 166 ft | 6 kts | 327° |
| 2026-05-07 18:05 | 60.31678 | 24.97347 | 166 ft | 7 kts | 334° |
| 2026-05-07 18:05 | 60.31695 | 24.97296 | 166 ft | 3 kts | 258° |
| 2026-05-07 18:05 | 60.31684 | 24.97254 | 166 ft | 6 kts | 242° |
| 2026-05-07 18:05 | 60.31676 | 24.97223 | 166 ft | 1 kts | 242° |
| 2026-05-07 18:06 | 60.31673 | 24.97213 | 166 ft | 0 kts | 242° |
| 2026-05-07 18:06 | 60.31672 | 24.97206 | 166 ft | 0 kts | 242° |